Etusivu
METAR-TAF:

METAR-TAF

Lentoasemat :

Gardermoenin lentoasema

Oslo, Norja

Leveyspiiri: 60-12N, Pituuspiiri: 011-05E, korkeus merenpinnasta: 208 m

Tämänhetkinen sää

Tämä raportti tehtiin 32 minuuttia sitten, kello 10.20 UTC
Tuuli 11 kn etelästä/lounaasta
Lämpötila 4°C
Kosteus 75%
Ilmanpaine 990 hPa
Näkyvyys 10 km tai enemmän
Muutamia pilviä 1900 ft:n korkeudessa
Hajonneita pilviä 20000 ft:n korkeudessa

METAR: ENGM 181020Z 20011KT 9999 FEW019 BKN200 04/00 Q0990 NOSIG

Aika: 11:52 (10:52 UTC)

Sääennuste

Ennuste voimassa 18. päivästä klo 06 UTC - 19. päivään klo 06 UTC
Tuuli 12 kn etelästä
Näkyvyys 10 km tai enemmän
ei pilviä alle 1500 m:ssä eikä cumulonimbus-pilviä
Ajoittain
19. päivästä klo 00 UTC - 19. päivään klo 06 UTC
Tuuli 5 kn eri suunnista

TAF: ENGM 1806/1906 19012KT CAVOK TEMPO 1900/1906 VRB05KT

Säähavainnot ja -ennusteet yli 4000 lentoasemalta (METAR- ja TAF-raportit).

Käytössä olevat sääasemat on merkitty karttaan keltaisilla ja punaisilla pisteillä.

Aseta hiiri pisteen päälle nähdäksesi sääaseman nimen.

Klikkaa sitten nähdäksesi säähavainnot ja -ennusteet.

Kartan vaihtaminen: klikkaa mustalla rastilla varustettuja vihreitä pisteitä, niin voit zoomata sisään; viivalla varustettua vihreää pistettä, niin voit zoomata ulos tai vihreitä nuolia, niin pääset viereisille kartoille.


METAR-TAF: